Relliable — WDH4628 — position and weather

sailwx.info

Track history (hours):
 
Tides and Currents Weather Stations Pressure Air Temp Water Temp Dewpoint Dewpoint Depression Visibility Wind Speed Wind Dir Waves Ship Positions

Relliable

Owner: Coastline Marine Towing Inc., Atl Highlands, NJ. More information available from US FCC via Universal Licensing System and Coast Guard Vessel Documentation Center.

Last reported at 2018-Aug-20 16:51 UTC. Time now 2018-Aug-21 04:18 UTC.
Position N 40°36' W 074°03'.

Type: Tug. MMSI: 367619670.

Date/timePositionNaut miles runAvg speedWind from/ knotsBaromVisibWave heightAir tempDewpointWater temp
2018-Aug-20 16:51N 40°36' W 074°03'3 9.5
2018-Aug-20 16:30N 40°39' W 074°02'3 6.9
2018-Aug-20 16:03N 40°42' W 074°00'0 0.2
2018-Aug-20 16:00N 40°42' W 074°00'0 0.2
2018-Aug-20 15:30N 40°42' W 074°00'2 3.7
2018-Aug-20 15:03N 40°40' W 074°01'0 5.5
2018-Aug-20 15:00N 40°40' W 074°01'2 4.5
2018-Aug-20 14:30N 40°38' W 074°03'7 2.1
2018-Aug-20 11:19N 40°35' W 073°55'0 0.0
2018-Aug-20 11:03N 40°35' W 073°55'0 0.0
2018-Aug-20 10:58N 40°35' W 073°55'0 0.0
2018-Aug-20 10:30N 40°35' W 073°55'0 0.0
2018-Aug-20 10:03N 40°35' W 073°55'  
2018-Aug-16 04:45N 40°40' W 074°03'2 7.8
2018-Aug-16 04:30N 40°42' W 074°02'4 0.9
2018-Aug-16 00:22N 40°45' W 074°01'2 6.3
2018-Aug-16 00:00N 40°43' W 074°01'3 6.4
2018-Aug-15 23:30N 40°40' W 074°02'  
Track history (hours):
 
Tides and Currents Weather Stations Pressure Air Temp Water Temp Dewpoint Dewpoint Depression Visibility Wind Speed Wind Dir Waves Ship Positions

Relliable

Owner: Coastline Marine Towing Inc., Atl Highlands, NJ. More information available from US FCC via Universal Licensing System and Coast Guard Vessel Documentation Center.

Last reported at 2018-Aug-20 16:51 UTC. Time now 2018-Aug-21 04:18 UTC.
Position N 40°36' W 074°03'.

Type: Tug. MMSI: 367619670.

Date/timePositionNaut miles runAvg speedWind from/ knotsBaromVisibWave heightAir tempDewpointWater temp
2018-Aug-20 16:51N 40°36' W 074°03'3 9.5
2018-Aug-20 16:30N 40°39' W 074°02'3 6.9
2018-Aug-20 16:03N 40°42' W 074°00'0 0.2
2018-Aug-20 16:00N 40°42' W 074°00'0 0.2
2018-Aug-20 15:30N 40°42' W 074°00'2 3.7
2018-Aug-20 15:03N 40°40' W 074°01'0 5.5
2018-Aug-20 15:00N 40°40' W 074°01'2 4.5
2018-Aug-20 14:30N 40°38' W 074°03'7 2.1
2018-Aug-20 11:19N 40°35' W 073°55'0 0.0
2018-Aug-20 11:03N 40°35' W 073°55'0 0.0
2018-Aug-20 10:58N 40°35' W 073°55'0 0.0
2018-Aug-20 10:30N 40°35' W 073°55'0 0.0
2018-Aug-20 10:03N 40°35' W 073°55'  
2018-Aug-16 04:45N 40°40' W 074°03'2 7.8
2018-Aug-16 04:30N 40°42' W 074°02'4 0.9
2018-Aug-16 00:22N 40°45' W 074°01'2 6.3
2018-Aug-16 00:00N 40°43' W 074°01'3 6.4
2018-Aug-15 23:30N 40°40' W 074°02'  

Dump ship's entire track history